sensor_id;sensor_type;location;lat;lon;timestamp;P1;durP1;ratioP1;P2;durP2;ratioP2
51692;SDS011;37777;53.066;21.638;2022-09-19T00:06:06;2.60;;;2.40;;
51692;SDS011;37777;53.066;21.638;2022-09-19T00:13:11;2.80;;;2.17;;
51692;SDS011;37777;53.066;21.638;2022-09-19T00:20:13;2.30;;;2.10;;
51692;SDS011;37777;53.066;21.638;2022-09-19T00:27:19;3.05;;;2.22;;
51692;SDS011;37777;53.066;21.638;2022-09-19T00:34:23;5.95;;;2.55;;
51692;SDS011;37777;53.066;21.638;2022-09-19T00:41:27;2.75;;;2.10;;
51692;SDS011;37777;53.066;21.638;2022-09-19T00:48:29;2.50;;;2.30;;
51692;SDS011;37777;53.066;21.638;2022-09-19T00:55:34;2.40;;;2.20;;
51692;SDS011;37777;53.066;21.638;2022-09-19T01:02:38;2.88;;;2.30;;
51692;SDS011;37777;53.066;21.638;2022-09-19T01:24:42;2.40;;;2.20;;
51692;SDS011;37777;53.066;21.638;2022-09-19T01:31:57;2.85;;;2.55;;
51692;SDS011;37777;53.066;21.638;2022-09-19T01:39:01;2.33;;;2.13;;
51692;SDS011;37777;53.066;21.638;2022-09-19T01:46:14;2.10;;;2.00;;
51692;SDS011;37777;53.066;21.638;2022-09-19T02:00:31;2.30;;;2.10;;
51692;SDS011;37777;53.066;21.638;2022-09-19T02:15:02;2.95;;;2.20;;
51692;SDS011;37777;53.066;21.638;2022-09-19T02:22:10;2.58;;;2.00;;
51692;SDS011;37777;53.066;21.638;2022-09-19T02:29:20;3.95;;;2.08;;
51692;SDS011;37777;53.066;21.638;2022-09-19T02:52:03;2.20;;;2.00;;
51692;SDS011;37777;53.066;21.638;2022-09-19T02:58:51;1.98;;;1.88;;
51692;SDS011;37777;53.066;21.638;2022-09-19T03:05:56;1.85;;;1.75;;
51692;SDS011;37777;53.066;21.638;2022-09-19T03:13:04;2.60;;;1.92;;
51692;SDS011;37777;53.066;21.638;2022-09-19T03:20:08;1.70;;;1.60;;
51692;SDS011;37777;53.066;21.638;2022-09-19T03:27:12;2.00;;;1.85;;
51692;SDS011;37777;53.066;21.638;2022-09-19T03:34:15;2.20;;;2.00;;
51692;SDS011;37777;53.066;21.638;2022-09-19T03:41:20;2.33;;;2.13;;
51692;SDS011;37777;53.066;21.638;2022-09-19T03:48:23;2.78;;;2.20;;
51692;SDS011;37777;53.066;21.638;2022-09-19T03:55:27;2.47;;;2.00;;
51692;SDS011;37777;53.066;21.638;2022-09-19T04:02:29;2.30;;;2.20;;
51692;SDS011;37777;53.066;21.638;2022-09-19T04:09:31;2.60;;;2.40;;
51692;SDS011;37777;53.066;21.638;2022-09-19T04:16:34;4.95;;;2.20;;
51692;SDS011;37777;53.066;21.638;2022-09-19T04:23:36;2.67;;;2.35;;
51692;SDS011;37777;53.066;21.638;2022-09-19T04:30:39;2.80;;;2.60;;
51692;SDS011;37777;53.066;21.638;2022-09-19T04:37:41;2.55;;;2.35;;
51692;SDS011;37777;53.066;21.638;2022-09-19T04:44:43;2.70;;;2.25;;
51692;SDS011;37777;53.066;21.638;2022-09-19T04:51:46;2.55;;;2.35;;
51692;SDS011;37777;53.066;21.638;2022-09-19T04:58:48;2.33;;;2.13;;
51692;SDS011;37777;53.066;21.638;2022-09-19T05:05:50;2.50;;;2.20;;
51692;SDS011;37777;53.066;21.638;2022-09-19T05:12:54;2.17;;;2.00;;
51692;SDS011;37777;53.066;21.638;2022-09-19T05:19:56;2.30;;;2.10;;
51692;SDS011;37777;53.066;21.638;2022-09-19T05:26:58;2.53;;;2.33;;
51692;SDS011;37777;53.066;21.638;2022-09-19T05:34:00;3.53;;;2.50;;
51692;SDS011;37777;53.066;21.638;2022-09-19T05:41:03;3.05;;;2.60;;
51692;SDS011;37777;53.066;21.638;2022-09-19T05:48:06;3.40;;;2.80;;
51692;SDS011;37777;53.066;21.638;2022-09-19T05:55:08;4.22;;;2.67;;
51692;SDS011;37777;53.066;21.638;2022-09-19T06:02:11;4.00;;;2.83;;
51692;SDS011;37777;53.066;21.638;2022-09-19T06:09:14;2.67;;;2.47;;
51692;SDS011;37777;53.066;21.638;2022-09-19T06:16:16;2.85;;;2.65;;
51692;SDS011;37777;53.066;21.638;2022-09-19T06:23:19;2.67;;;2.47;;
51692;SDS011;37777;53.066;21.638;2022-09-19T06:30:22;3.17;;;2.88;;
51692;SDS011;37777;53.066;21.638;2022-09-19T06:37:24;3.25;;;2.92;;
51692;SDS011;37777;53.066;21.638;2022-09-19T06:44:27;3.47;;;3.10;;
51692;SDS011;37777;53.066;21.638;2022-09-19T06:51:29;4.55;;;2.78;;
51692;SDS011;37777;53.066;21.638;2022-09-19T06:58:31;5.90;;;3.40;;
51692;SDS011;37777;53.066;21.638;2022-09-19T07:05:34;3.65;;;3.03;;
51692;SDS011;37777;53.066;21.638;2022-09-19T07:12:36;2.83;;;2.58;;
51692;SDS011;37777;53.066;21.638;2022-09-19T07:19:38;4.22;;;3.10;;
51692;SDS011;37777;53.066;21.638;2022-09-19T07:26:40;1.83;;;1.73;;
51692;SDS011;37777;53.066;21.638;2022-09-19T07:33:47;2.25;;;2.05;;
51692;SDS011;37777;53.066;21.638;2022-09-19T07:40:49;3.35;;;3.05;;
51692;SDS011;37777;53.066;21.638;2022-09-19T07:47:52;7.68;;;4.28;;
51692;SDS011;37777;53.066;21.638;2022-09-19T07:54:54;4.05;;;3.42;;
51692;SDS011;37777;53.066;21.638;2022-09-19T08:01:56;3.15;;;2.88;;
51692;SDS011;37777;53.066;21.638;2022-09-19T08:08:58;3.63;;;3.10;;
51692;SDS011;37777;53.066;21.638;2022-09-19T08:16:00;3.22;;;2.72;;
51692;SDS011;37777;53.066;21.638;2022-09-19T08:23:05;7.20;;;3.38;;
51692;SDS011;37777;53.066;21.638;2022-09-19T08:30:08;3.75;;;3.28;;
51692;SDS011;37777;53.066;21.638;2022-09-19T08:37:21;5.85;;;3.38;;
51692;SDS011;37777;53.066;21.638;2022-09-19T08:44:34;4.20;;;3.80;;
51692;SDS011;37777;53.066;21.638;2022-09-19T08:59:03;6.07;;;4.25;;
51692;SDS011;37777;53.066;21.638;2022-09-19T09:21:14;4.28;;;2.25;;
51692;SDS011;37777;53.066;21.638;2022-09-19T09:28:34;3.55;;;2.97;;
51692;SDS011;37777;53.066;21.638;2022-09-19T09:35:52;3.83;;;3.20;;
51692;SDS011;37777;53.066;21.638;2022-09-19T09:43:00;9.48;;;5.55;;
51692;SDS011;37777;53.066;21.638;2022-09-19T09:57:37;3.05;;;2.83;;
51692;SDS011;37777;53.066;21.638;2022-09-19T10:04:53;7.55;;;4.20;;
51692;SDS011;37777;53.066;21.638;2022-09-19T10:12:05;6.40;;;4.18;;
51692;SDS011;37777;53.066;21.638;2022-09-19T10:19:45;6.00;;;4.30;;
51692;SDS011;37777;53.066;21.638;2022-09-19T10:26:56;5.63;;;4.22;;
51692;SDS011;37777;53.066;21.638;2022-09-19T10:34:02;10.73;;;5.20;;
51692;SDS011;37777;53.066;21.638;2022-09-19T10:41:09;9.38;;;5.60;;
51692;SDS011;37777;53.066;21.638;2022-09-19T10:48:15;7.47;;;5.70;;
51692;SDS011;37777;53.066;21.638;2022-09-19T10:55:23;7.00;;;5.15;;
51692;SDS011;37777;53.066;21.638;2022-09-19T11:02:26;5.78;;;5.13;;
51692;SDS011;37777;53.066;21.638;2022-09-19T11:09:36;7.25;;;5.82;;
51692;SDS011;37777;53.066;21.638;2022-09-19T11:16:46;6.10;;;4.43;;
51692;SDS011;37777;53.066;21.638;2022-09-19T11:31:33;10.55;;;5.05;;
51692;SDS011;37777;53.066;21.638;2022-09-19T11:39:20;8.75;;;5.60;;
51692;SDS011;37777;53.066;21.638;2022-09-19T11:46:57;3.55;;;3.25;;
51692;SDS011;37777;53.066;21.638;2022-09-19T11:54:20;7.88;;;4.97;;
51692;SDS011;37777;53.066;21.638;2022-09-19T12:16:44;4.25;;;3.78;;
51692;SDS011;37777;53.066;21.638;2022-09-19T12:23:56;5.28;;;4.22;;
51692;SDS011;37777;53.066;21.638;2022-09-19T12:31:20;7.03;;;5.13;;
51692;SDS011;37777;53.066;21.638;2022-09-19T12:52:52;7.25;;;5.63;;
51692;SDS011;37777;53.066;21.638;2022-09-19T13:00:07;7.57;;;5.00;;
51692;SDS011;37777;53.066;21.638;2022-09-19T13:07:20;11.68;;;6.72;;
51692;SDS011;37777;53.066;21.638;2022-09-19T13:14:53;11.55;;;6.72;;
51692;SDS011;37777;53.066;21.638;2022-09-19T13:21:57;5.70;;;4.57;;
51692;SDS011;37777;53.066;21.638;2022-09-19T13:36:42;7.80;;;6.40;;
51692;SDS011;37777;53.066;21.638;2022-09-19T13:43:52;7.18;;;5.40;;
51692;SDS011;37777;53.066;21.638;2022-09-19T13:51:19;8.32;;;5.90;;
51692;SDS011;37777;53.066;21.638;2022-09-19T13:58:29;9.07;;;6.35;;
51692;SDS011;37777;53.066;21.638;2022-09-19T14:05:35;9.20;;;6.35;;
51692;SDS011;37777;53.066;21.638;2022-09-19T14:19:51;10.25;;;5.28;;
51692;SDS011;37777;53.066;21.638;2022-09-19T14:41:59;8.73;;;4.78;;
51692;SDS011;37777;53.066;21.638;2022-09-19T14:49:18;7.78;;;5.68;;
51692;SDS011;37777;53.066;21.638;2022-09-19T14:56:31;6.13;;;4.85;;
51692;SDS011;37777;53.066;21.638;2022-09-19T15:11:00;5.90;;;4.85;;
51692;SDS011;37777;53.066;21.638;2022-09-19T15:18:16;13.07;;;7.28;;
51692;SDS011;37777;53.066;21.638;2022-09-19T15:25:33;8.80;;;6.70;;
51692;SDS011;37777;53.066;21.638;2022-09-19T15:32:37;11.23;;;6.70;;
51692;SDS011;37777;53.066;21.638;2022-09-19T15:39:40;13.25;;;8.18;;
51692;SDS011;37777;53.066;21.638;2022-09-19T15:46:45;18.77;;;10.75;;
51692;SDS011;37777;53.066;21.638;2022-09-19T15:53:47;15.63;;;9.20;;
51692;SDS011;37777;53.066;21.638;2022-09-19T16:00:50;11.63;;;8.32;;
51692;SDS011;37777;53.066;21.638;2022-09-19T16:07:55;20.17;;;9.30;;
51692;SDS011;37777;53.066;21.638;2022-09-19T16:22:21;21.00;;;11.75;;
51692;SDS011;37777;53.066;21.638;2022-09-19T16:29:27;21.35;;;11.25;;
51692;SDS011;37777;53.066;21.638;2022-09-19T16:36:48;22.95;;;12.75;;
51692;SDS011;37777;53.066;21.638;2022-09-19T16:44:01;23.67;;;12.80;;
51692;SDS011;37777;53.066;21.638;2022-09-19T16:51:13;24.25;;;10.77;;
51692;SDS011;37777;53.066;21.638;2022-09-19T16:58:16;28.60;;;15.50;;
51692;SDS011;37777;53.066;21.638;2022-09-19T17:05:19;18.95;;;10.85;;
51692;SDS011;37777;53.066;21.638;2022-09-19T17:12:24;24.60;;;12.10;;
51692;SDS011;37777;53.066;21.638;2022-09-19T17:19:26;21.88;;;10.75;;
51692;SDS011;37777;53.066;21.638;2022-09-19T17:26:28;18.63;;;10.23;;
51692;SDS011;37777;53.066;21.638;2022-09-19T17:33:30;17.63;;;10.65;;
51692;SDS011;37777;53.066;21.638;2022-09-19T17:40:33;20.98;;;11.05;;
51692;SDS011;37777;53.066;21.638;2022-09-19T17:47:38;20.23;;;12.40;;
51692;SDS011;37777;53.066;21.638;2022-09-19T17:54:45;22.48;;;13.20;;
51692;SDS011;37777;53.066;21.638;2022-09-19T18:01:47;22.23;;;12.38;;
51692;SDS011;37777;53.066;21.638;2022-09-19T18:09:08;18.52;;;9.45;;
51692;SDS011;37777;53.066;21.638;2022-09-19T18:16:12;22.05;;;12.45;;
51692;SDS011;37777;53.066;21.638;2022-09-19T18:23:23;35.80;;;16.33;;
51692;SDS011;37777;53.066;21.638;2022-09-19T18:30:25;27.35;;;15.45;;
51692;SDS011;37777;53.066;21.638;2022-09-19T18:37:27;27.63;;;13.75;;
51692;SDS011;37777;53.066;21.638;2022-09-19T18:44:29;22.35;;;12.73;;
51692;SDS011;37777;53.066;21.638;2022-09-19T18:51:32;21.92;;;12.20;;
51692;SDS011;37777;53.066;21.638;2022-09-19T18:58:34;24.75;;;12.80;;
51692;SDS011;37777;53.066;21.638;2022-09-19T19:05:41;26.60;;;15.63;;
51692;SDS011;37777;53.066;21.638;2022-09-19T19:12:44;24.67;;;12.65;;
51692;SDS011;37777;53.066;21.638;2022-09-19T19:19:53;21.30;;;12.30;;
51692;SDS011;37777;53.066;21.638;2022-09-19T19:26:55;16.40;;;10.02;;
51692;SDS011;37777;53.066;21.638;2022-09-19T19:33:58;16.48;;;7.72;;
51692;SDS011;37777;53.066;21.638;2022-09-19T19:41:01;21.10;;;10.63;;
51692;SDS011;37777;53.066;21.638;2022-09-19T19:48:05;19.88;;;11.10;;
51692;SDS011;37777;53.066;21.638;2022-09-19T19:55:07;22.23;;;11.88;;
51692;SDS011;37777;53.066;21.638;2022-09-19T20:02:11;16.45;;;9.48;;
51692;SDS011;37777;53.066;21.638;2022-09-19T20:09:14;16.27;;;9.25;;
51692;SDS011;37777;53.066;21.638;2022-09-19T20:16:17;10.80;;;7.88;;
51692;SDS011;37777;53.066;21.638;2022-09-19T20:23:22;13.35;;;9.07;;
51692;SDS011;37777;53.066;21.638;2022-09-19T20:30:25;15.55;;;7.28;;
51692;SDS011;37777;53.066;21.638;2022-09-19T20:37:28;15.10;;;10.57;;
51692;SDS011;37777;53.066;21.638;2022-09-19T20:44:31;14.23;;;9.57;;
51692;SDS011;37777;53.066;21.638;2022-09-19T20:51:35;16.58;;;10.18;;
51692;SDS011;37777;53.066;21.638;2022-09-19T20:58:43;14.57;;;9.55;;
51692;SDS011;37777;53.066;21.638;2022-09-19T21:05:50;16.00;;;9.70;;
51692;SDS011;37777;53.066;21.638;2022-09-19T21:12:56;13.77;;;8.45;;
51692;SDS011;37777;53.066;21.638;2022-09-19T21:20:01;15.10;;;9.32;;
51692;SDS011;37777;53.066;21.638;2022-09-19T21:27:04;11.77;;;7.85;;
51692;SDS011;37777;53.066;21.638;2022-09-19T21:34:12;12.85;;;9.27;;
51692;SDS011;37777;53.066;21.638;2022-09-19T21:41:23;14.98;;;9.50;;
51692;SDS011;37777;53.066;21.638;2022-09-19T21:48:32;13.25;;;9.10;;
51692;SDS011;37777;53.066;21.638;2022-09-19T21:55:39;11.57;;;8.30;;
51692;SDS011;37777;53.066;21.638;2022-09-19T22:02:56;14.73;;;8.73;;
51692;SDS011;37777;53.066;21.638;2022-09-19T22:10:01;12.98;;;8.65;;
51692;SDS011;37777;53.066;21.638;2022-09-19T22:17:03;13.68;;;7.80;;
51692;SDS011;37777;53.066;21.638;2022-09-19T22:24:06;12.05;;;7.85;;
51692;SDS011;37777;53.066;21.638;2022-09-19T22:31:09;10.88;;;7.72;;
51692;SDS011;37777;53.066;21.638;2022-09-19T22:38:12;17.77;;;8.55;;
51692;SDS011;37777;53.066;21.638;2022-09-19T22:45:14;12.60;;;8.45;;
51692;SDS011;37777;53.066;21.638;2022-09-19T22:52:16;12.05;;;7.60;;
51692;SDS011;37777;53.066;21.638;2022-09-19T22:59:18;11.88;;;8.07;;
51692;SDS011;37777;53.066;21.638;2022-09-19T23:06:22;13.38;;;7.07;;
51692;SDS011;37777;53.066;21.638;2022-09-19T23:13:38;9.63;;;6.93;;
51692;SDS011;37777;53.066;21.638;2022-09-19T23:20:49;13.60;;;7.03;;
51692;SDS011;37777;53.066;21.638;2022-09-19T23:27:51;12.52;;;7.22;;
51692;SDS011;37777;53.066;21.638;2022-09-19T23:34:53;9.25;;;6.68;;
51692;SDS011;37777;53.066;21.638;2022-09-19T23:41:56;13.93;;;7.22;;
51692;SDS011;37777;53.066;21.638;2022-09-19T23:48:57;9.70;;;6.50;;
51692;SDS011;37777;53.066;21.638;2022-09-19T23:56:01;9.85;;;6.95;;
